< < Back
Terminal Aerodrome Forecast


Current Version              Previous Versions:   1  2  3  4  5  6  7  8  9  

Terminal Aerodrome Forecast

219
FTUS42 KTAE 041636 AAA
TAFABY
TAF AMD
KABY 041636Z 0417/0512 VRB10G20KT 3SM TSRA BKN025CB BKN050
     FM041730 24009KT P6SM VCTS BKN040CB
      TEMPO 0418/0422 VRB15G25KT 2SM TSRA SCT010 BKN030CB
     FM050300 23003KT P6SM BKN250=

Latest METAR

976
SAUS70 KWBC 050400 RRB
MTRABY
METAR KABY 050353Z AUTO 08004KT 10SM FEW120 22/20 A3014 RMK AO2 RAE03
SLP202 P0000 T02220200


USA.gov is the U.S. government's official web portal to all federal, state and local government web resources and services.